Latest Weather Observations for Fort Denison

IDN60901

Issued at 8:15 am EST Saturday 30 August 2014 (issued every 10 minutes, with the page automatically refreshed every 10 minutes)

About weather observations | Map of Sydney area stations | Latest observations for Sydney area | Other Formats
Station Details ID: 066022 Name: FORT DENISON Lat: -33.86 Lon: 151.23 Height: 5.0 m
Data from the previous 72 hours. | See also: Recent months for locations in New South Wales
Date/Time
EST
Tmp

°C
App
Tmp
°C
Dew
Point
°C
Rel
Hum
%
Delta-T

°C
Wind Press
QNH
hPa
Press
MSL
hPa
Rain
since
9 am
mm
Dir
 
Spd
km/h
Gust
km/h
Spd
kts
Gust
kts
30/08:00am - - - - - SSW 20 32 11 17 - - -
30/07:30am - - - - - SW 20 33 11 18 - - -
30/07:00am - - - - - SW 19 35 10 19 - - -
30/06:30am - - - - - SW 22 35 12 19 - - -
30/06:01am - - - - - SSW 28 46 15 25 - - -
30/06:00am - - - - - SSW 26 46 14 25 - - -
30/05:30am - - - - - SSW 20 35 11 19 - - -
30/05:00am - - - - - SSW 28 48 15 26 - - -
30/04:30am - - - - - SSW 28 48 15 26 - - -
30/04:03am - - - - - SSW 28 48 15 26 - - -
30/04:00am - - - - - SSW 26 39 14 21 - - -
30/03:35am - - - - - SSW 28 50 15 27 - - -
30/03:30am - - - - - SSW 26 37 14 20 - - -
30/03:11am - - - - - SSW 28 46 15 25 - - -
30/03:00am - - - - - SSW 24 35 13 19 - - -
30/02:30am - - - - - SSW 24 39 13 21 - - -
30/02:00am - - - - - SSW 24 37 13 20 - - -
30/01:30am - - - - - SSW 24 39 13 21 - - -
30/01:15am - - - - - SSW 28 46 15 25 - - -
30/01:00am - - - - - SSW 30 39 16 21 - - -
30/12:32am - - - - - SSW 28 50 15 27 - - -
30/12:30am - - - - - SSW 26 43 14 23 - - -
30/12:00am - - - - - SSW 26 41 14 22 - - -
 
Date/Time
EST
Tmp

°C
App
Tmp
°C
Dew
Point
°C
Rel
Hum
%
Delta-T

°C
Wind Press
QNH
hPa
Press
MSL
hPa
Rain
since
9 am
mm
Dir
 
Spd
km/h
Gust
km/h
Spd
kts
Gust
kts
29/11:30pm - - - - - SSW 22 37 12 20 - - -
29/11:00pm - - - - - SW 24 39 13 21 - - -
29/10:30pm - - - - - SW 26 41 14 22 - - -
29/10:00pm - - - - - SSW 28 46 15 25 - - -
29/09:58pm - - - - - SSW 28 46 15 25 - - -
29/09:30pm - - - - - SSW 28 39 15 21 - - -
29/09:00pm - - - - - SSW 22 33 12 18 - - -
29/08:30pm - - - - - SSW 26 46 14 25 - - -
29/08:05pm - - - - - S 28 48 15 26 - - -
29/08:00pm - - - - - S 26 39 14 21 - - -
29/07:45pm - - - - - SSW 28 50 15 27 - - -
29/07:30pm - - - - - S 26 41 14 22 - - -
29/07:00pm - - - - - SSW 28 44 15 24 - - -
29/06:33pm - - - - - S 28 46 15 25 - - -
29/06:30pm - - - - - SSW 26 39 14 21 - - -
29/06:00pm - - - - - S 26 41 14 22 - - -
29/05:30pm - - - - - SSW 22 35 12 19 - - -
29/05:00pm - - - - - SSW 24 41 13 22 - - -
29/04:30pm - - - - - SSW 24 35 13 19 - - -
29/04:17pm - - - - - SSW 28 48 15 26 - - -
29/04:00pm - - - - - S 24 37 13 20 - - -
29/03:30pm - - - - - SSW 26 44 14 24 - - -
29/03:15pm - - - - - SSW 28 46 15 25 - - -
29/03:00pm - - - - - SSW 24 41 13 22 - - -
29/02:30pm - - - - - SSW 20 32 11 17 - - -
29/02:12pm - - - - - S 28 46 15 25 - - -
29/02:00pm - - - - - S 26 39 14 21 - - -
29/01:42pm - - - - - S 28 46 15 25 - - -
29/01:30pm - - - - - SSW 28 43 15 23 - - -
29/01:00pm - - - - - SSW 13 28 7 15 - - -
29/12:30pm - - - - - SSW 22 35 12 19 - - -
29/12:00pm - - - - - SSW 20 33 11 18 - - -
29/11:30am - - - - - SSW 9 17 5 9 - - -
29/11:00am - - - - - SSW 20 33 11 18 - - -
29/10:30am - - - - - SSW 22 33 12 18 - - -
29/10:00am - - - - - SSW 20 26 11 14 - - -
29/09:30am - - - - - W 11 17 6 9 - - -
29/09:00am - - - - - W 17 22 9 12 - - -
29/08:30am - - - - - W 22 24 12 13 - - -
29/08:00am - - - - - W 22 28 12 15 - - -
29/07:30am - - - - - WNW 15 20 8 11 - - -
29/07:00am - - - - - W 22 28 12 15 - - -
29/06:30am - - - - - W 20 24 11 13 - - -
29/06:00am - - - - - W 20 24 11 13 - - -
29/05:30am - - - - - W 22 28 12 15 - - -
29/05:00am - - - - - W 19 22 10 12 - - -
29/04:30am - - - - - W 20 24 11 13 - - -
29/04:00am - - - - - WNW 13 17 7 9 - - -
29/03:30am - - - - - W 19 22 10 12 - - -
29/03:00am - - - - - W 19 22 10 12 - - -
29/02:30am - - - - - W 20 22 11 12 - - -
29/02:00am - - - - - W 19 22 10 12 - - -
29/01:30am - - - - - WSW 13 19 7 10 - - -
29/01:00am - - - - - W 15 19 8 10 - - -
29/12:30am - - - - - WNW 17 22 9 12 - - -
29/12:00am - - - - - W 19 22 10 12 - - -
 
Date/Time
EST
Tmp

°C
App
Tmp
°C
Dew
Point
°C
Rel
Hum
%
Delta-T

°C
Wind Press
QNH
hPa
Press
MSL
hPa
Rain
since
9 am
mm
Dir
 
Spd
km/h
Gust
km/h
Spd
kts
Gust
kts
28/11:30pm - - - - - W 20 24 11 13 - - -
28/11:00pm - - - - - W 20 26 11 14 - - -
28/10:30pm - - - - - W 13 19 7 10 - - -
28/10:00pm - - - - - S 11 20 6 11 - - -
28/09:30pm - - - - - S 15 20 8 11 - - -
28/09:00pm - - - - - S 11 17 6 9 - - -
28/08:30pm - - - - - S 11 20 6 11 - - -
28/08:00pm - - - - - S 13 30 7 16 - - -
28/07:30pm - - - - - SSE 15 22 8 12 - - -
28/07:00pm - - - - - SSE 17 22 9 12 - - -
28/06:30pm - - - - - S 15 20 8 11 - - -
28/06:00pm - - - - - S 17 24 9 13 - - -
28/05:30pm - - - - - SSE 17 26 9 14 - - -
28/05:00pm - - - - - SSE 28 37 15 20 - - -
28/04:30pm - - - - - SSE 26 33 14 18 - - -
28/04:00pm - - - - - SSE 30 39 16 21 - - -
28/03:30pm - - - - - SSE 30 39 16 21 - - -
28/03:00pm - - - - - SSE 26 41 14 22 - - -
28/02:39pm - - - - - SSE 28 46 15 25 - - -
28/02:30pm - - - - - SE 28 41 15 22 - - -
28/02:00pm - - - - - SSE 28 39 15 21 - - -
28/01:30pm - - - - - SSE 32 46 17 25 - - -
28/01:00pm - - - - - SE 30 39 16 21 - - -
28/12:30pm - - - - - SSE 30 44 16 24 - - -
28/12:00pm - - - - - SSE 32 48 17 26 - - -
28/11:55am - - - - - SSE 28 48 15 26 - - -
28/11:30am - - - - - SE 28 41 15 22 - - -
28/11:00am - - - - - SSE 28 39 15 21 - - -
28/10:30am - - - - - SSE 26 35 14 19 - - -
28/10:00am - - - - - SE 24 37 13 20 - - -
28/09:30am - - - - - SE 20 30 11 16 - - -
28/09:00am - - - - - SSE 20 28 11 15 - - -
28/08:30am - - - - - S 9 15 5 8 - - -
28/08:00am - - - - - SSW 13 20 7 11 - - -
28/07:30am - - - - - S 17 28 9 15 - - -
28/07:00am - - - - - SSW 13 19 7 10 - - -
28/06:30am - - - - - SSW 15 20 8 11 - - -
28/06:00am - - - - - S 15 26 8 14 - - -
28/05:30am - - - - - S 7 17 4 9 - - -
28/05:00am - - - - - S 15 22 8 12 - - -
28/04:30am - - - - - SSE 19 26 10 14 - - -
28/04:00am - - - - - SSE 20 32 11 17 - - -
28/03:30am - - - - - SSE 20 32 11 17 - - -
28/03:00am - - - - - WNW 17 20 9 11 - - -
28/02:30am - - - - - ESE 13 20 7 11 - - -
28/02:14am - - - - - ESE 28 43 15 23 - - -
28/02:00am - - - - - SSW 13 22 7 12 - - -
28/01:30am - - - - - S 11 19 6 10 - - -
28/01:00am - - - - - S 17 28 9 15 - - -
28/12:30am - - - - - S 13 20 7 11 - - -
28/12:00am - - - - - S 17 26 9 14 - - -
 
Date/Time
EST
Tmp

°C
App
Tmp
°C
Dew
Point
°C
Rel
Hum
%
Delta-T

°C
Wind Press
QNH
hPa
Press
MSL
hPa
Rain
since
9 am
mm
Dir
 
Spd
km/h
Gust
km/h
Spd
kts
Gust
kts
27/11:30pm - - - - - S 17 32 9 17 - - -
27/11:00pm - - - - - S 20 32 11 17 - - -
27/10:30pm - - - - - S 17 28 9 15 - - -
27/10:00pm - - - - - S 17 28 9 15 - - -
27/09:30pm - - - - - S 11 17 6 9 - - -
27/09:00pm - - - - - S 11 19 6 10 - - -
27/08:30pm - - - - - S 17 24 9 13 - - -
27/08:00pm - - - - - S 20 30 11 16 - - -
27/07:30pm - - - - - SSE 20 30 11 16 - - -
27/07:00pm - - - - - SSE 28 41 15 22 - - -
27/06:30pm - - - - - SSE 28 39 15 21 - - -
27/06:00pm - - - - - SSE 30 41 16 22 - - -
27/05:30pm - - - - - SSE 30 46 16 25 - - -
27/05:00pm - - - - - SSE 33 52 18 28 - - -
27/04:51pm - - - - - SSE 28 46 15 25 - - -
27/04:30pm - - - - - SSE 32 44 17 24 - - -
27/04:00pm - - - - - SSE 30 43 16 23 - - -
27/03:49pm - - - - - SSE 35 54 19 29 - - -
27/03:30pm - - - - - SSE 33 48 18 26 - - -
27/03:03pm - - - - - SSE 28 46 15 25 - - -
27/03:00pm - - - - - SE 28 41 15 22 - - -
27/02:30pm - - - - - SSE 35 50 19 27 - - -
27/02:00pm - - - - - SE 32 46 17 25 - - -
27/01:41pm - - - - - SE 28 46 15 25 - - -
27/01:30pm - - - - - SE 32 48 17 26 - - -
27/01:22pm - - - - - SSE 28 48 15 26 - - -
27/01:00pm - - - - - SE 26 37 14 20 - - -
27/12:30pm - - - - - SE 20 41 11 22 - - -
27/12:00pm - - - - - S 20 30 11 16 - - -
27/11:39am - - - - - SSE 32 50 17 27 - - -
27/11:30am - - - - - SSE 37 52 20 28 - - -
27/11:01am - - - - - SE 28 46 15 25 - - -
27/11:00am - - - - - SSE 30 46 16 25 - - -
27/10:57am - - - - - SE 28 46 15 25 - - -
27/10:30am - - - - - SSE 28 43 15 23 - - -
27/10:00am - - - - - SE 26 33 14 18 - - -
27/09:30am - - - - - SE 22 33 12 18 - - -
27/09:00am - - - - - S 19 26 10 14 - - -
27/08:30am - - - - - ESE 9 17 5 9 - - -

Latest Capital City Observations: Canberra | Sydney | Melbourne | Brisbane | Adelaide | Perth | Hobart | Darwin

Other Formats:

Comma delimited format used in spreadsheet applications
http://www.bom.gov.au/fwo/IDN60901/IDN60901.94769.axf

JavaScript Object Notation format (JSON) in row-major order
http://www.bom.gov.au/fwo/IDN60901/IDN60901.94769.json